createdAt,value
2022-11-24T00:03:45.877Z,98.26
2022-11-24T00:08:39.402Z,98.73
2022-11-24T00:13:31.095Z,98.67
2022-11-24T00:18:22.769Z,98.94
2022-11-24T00:23:14.550Z,99.23
2022-11-24T00:28:06.167Z,99.01
2022-11-24T00:32:57.801Z,99.49
2022-11-24T00:37:49.470Z,100.00
2022-11-24T00:42:41.196Z,99.99
2022-11-24T00:47:33.029Z,100.00
2022-11-24T00:52:24.646Z,100.00
2022-11-24T00:57:16.426Z,100.00
2022-11-24T01:02:08.109Z,100.00
2022-11-24T01:07:00.266Z,100.00
2022-11-24T01:12:04.349Z,100.00
2022-11-24T01:16:56.730Z,100.00
2022-11-24T01:21:48.717Z,100.00
2022-11-24T01:26:40.439Z,100.00
2022-11-24T01:31:32.947Z,100.00
2022-11-24T01:36:24.940Z,100.00
2022-11-24T01:41:18.201Z,100.00
2022-11-24T01:46:31.496Z,100.00
2022-11-24T01:51:26.804Z,100.00
2022-11-24T01:56:19.468Z,100.00
2022-11-24T02:01:11.741Z,100.00
2022-11-24T02:06:20.230Z,100.00
2022-11-24T02:11:11.916Z,100.00
2022-11-24T02:16:09.020Z,100.00
2022-11-24T02:21:01.484Z,100.00
2022-11-24T02:26:26.585Z,100.00
2022-11-24T02:31:18.588Z,100.00
2022-11-24T02:36:10.321Z,100.00
2022-11-24T02:41:09.008Z,100.00
2022-11-24T02:46:00.779Z,100.00
2022-11-24T02:50:52.410Z,100.00
2022-11-24T02:55:44.137Z,100.00
2022-11-24T03:00:35.796Z,100.00
2022-11-24T03:05:27.440Z,100.00
2022-11-24T03:10:19.090Z,100.00
2022-11-24T03:15:11.379Z,100.00
2022-11-24T03:20:05.121Z,100.00
2022-11-24T03:24:56.952Z,100.00
2022-11-24T03:29:48.581Z,100.00
2022-11-24T03:34:40.251Z,100.00
2022-11-24T03:39:31.876Z,100.00
2022-11-24T03:44:23.685Z,100.00
2022-11-24T03:49:15.309Z,100.00
2022-11-24T03:54:07.254Z,100.00
2022-11-24T03:58:58.807Z,100.00
2022-11-24T04:03:50.468Z,100.00
2022-11-24T04:08:42.116Z,100.00
2022-11-24T04:13:33.752Z,100.00
2022-11-24T04:18:25.532Z,100.00
2022-11-24T04:23:17.643Z,100.00
2022-11-24T04:28:10.140Z,100.00
2022-11-24T04:33:01.903Z,100.00
2022-11-24T04:37:53.939Z,100.00
2022-11-24T04:42:53.889Z,100.00
2022-11-24T04:47:45.505Z,100.00
2022-11-24T04:52:37.336Z,100.00
2022-11-24T04:57:29.687Z,100.00
2022-11-24T05:02:23.051Z,100.00
2022-11-24T05:07:18.861Z,100.00
2022-11-24T05:12:10.933Z,100.00
2022-11-24T05:17:02.566Z,100.00
2022-11-24T05:21:54.444Z,100.00
2022-11-24T05:26:46.247Z,100.00
2022-11-24T05:31:38.053Z,100.00
2022-11-24T05:36:48.531Z,100.00
2022-11-24T05:41:41.972Z,100.00
2022-11-24T05:46:33.863Z,100.00
2022-11-24T05:51:25.557Z,100.00
2022-11-24T05:56:17.321Z,100.00
2022-11-24T06:01:09.044Z,100.00
2022-11-24T06:06:00.941Z,100.00
2022-11-24T06:10:52.585Z,100.00
2022-11-24T06:15:44.214Z,100.00
2022-11-24T06:20:36.676Z,100.00
2022-11-24T06:25:29.394Z,100.00
2022-11-24T06:30:21.321Z,100.00
2022-11-24T06:35:13.602Z,100.00
2022-11-24T06:40:09.092Z,100.00
2022-11-24T06:45:00.836Z,100.00
2022-11-24T06:49:52.639Z,100.00
2022-11-24T06:54:44.436Z,100.00
2022-11-24T06:59:36.125Z,100.00
2022-11-24T07:04:27.968Z,100.00
2022-11-24T07:09:19.616Z,100.00
2022-11-24T07:14:11.347Z,100.00
2022-11-24T07:19:03.234Z,100.00
2022-11-24T07:23:57.263Z,100.00
2022-11-24T07:28:49.630Z,100.00
2022-11-24T07:33:41.454Z,100.00
2022-11-24T07:38:34.060Z,100.00
2022-11-24T07:43:25.731Z,100.00
2022-11-24T07:48:17.420Z,100.00
2022-11-24T07:53:09.113Z,100.00
2022-11-24T07:58:02.017Z,100.00
2022-11-24T08:02:54.202Z,100.00
2022-11-24T08:07:45.960Z,100.00
2022-11-24T08:12:37.804Z,100.00
2022-11-24T08:17:29.591Z,100.00
2022-11-24T08:22:21.735Z,100.00
2022-11-24T08:27:14.589Z,100.00
2022-11-24T08:32:06.835Z,100.00
2022-11-24T08:36:58.825Z,100.00
2022-11-24T08:41:50.639Z,100.00
2022-11-24T08:46:42.285Z,100.00
2022-11-24T08:51:34.107Z,100.00
2022-11-24T08:56:27.491Z,100.00
2022-11-24T09:01:19.342Z,100.00
2022-11-24T09:06:11.396Z,100.00
2022-11-24T09:11:05.729Z,100.00
2022-11-24T09:16:02.207Z,100.00
2022-11-24T09:20:57.467Z,100.00
2022-11-24T09:25:49.264Z,100.00
2022-11-24T09:30:41.030Z,100.00
2022-11-24T09:35:32.668Z,100.00
2022-11-24T09:40:24.477Z,100.00
2022-11-24T09:45:49.056Z,100.00
2022-11-24T09:50:38.365Z,100.00
2022-11-24T09:55:40.701Z,100.00
2022-11-24T10:00:33.865Z,100.00
2022-11-24T10:05:29.515Z,100.00
2022-11-24T10:10:30.061Z,100.00
2022-11-24T10:15:38.228Z,100.00
2022-11-24T10:20:55.013Z,100.00
2022-11-24T10:26:01.605Z,100.00
2022-11-24T10:31:00.454Z,100.00
2022-11-24T10:35:54.856Z,100.00
2022-11-24T10:40:58.183Z,100.00
2022-11-24T10:45:50.366Z,100.00
2022-11-24T10:50:43.116Z,100.00
2022-11-24T10:55:56.774Z,100.00
2022-11-24T11:00:48.449Z,100.00
2022-11-24T11:05:43.802Z,100.00
2022-11-24T11:10:35.549Z,100.00
2022-11-24T11:15:30.851Z,100.00
2022-11-24T11:20:28.307Z,100.00
2022-11-24T11:25:20.138Z,100.00
2022-11-24T11:35:35.152Z,100.00
2022-11-24T11:40:29.337Z,100.00
2022-11-24T11:45:32.194Z,100.00
2022-11-24T11:51:06.477Z,100.00
2022-11-24T11:55:56.066Z,100.00
2022-11-24T12:01:08.029Z,100.00
2022-11-24T12:06:12.202Z,100.00
2022-11-24T12:11:24.453Z,100.00
2022-11-24T12:16:30.898Z,100.00
2022-11-24T12:21:35.211Z,100.00
2022-11-24T12:26:45.635Z,100.00
2022-11-24T12:31:50.308Z,100.00
2022-11-24T12:36:57.454Z,100.00
2022-11-24T12:42:10.161Z,100.00
2022-11-24T12:47:14.045Z,100.00
2022-11-24T12:52:20.055Z,100.00
2022-11-24T12:57:34.697Z,100.00
2022-11-24T13:02:29.338Z,100.00
2022-11-24T13:07:49.299Z,100.00
2022-11-24T13:13:14.689Z,100.00
2022-11-24T13:18:47.221Z,100.00
2022-11-24T13:23:39.483Z,100.00
2022-11-24T13:29:06.164Z,100.00
2022-11-24T13:34:50.034Z,100.00
2022-11-24T13:40:14.185Z,100.00
2022-11-24T13:45:45.332Z,100.00
2022-11-24T13:50:55.022Z,100.00
2022-11-24T13:56:12.775Z,100.00
2022-11-24T14:01:11.696Z,100.00
2022-11-24T14:06:04.393Z,100.00
2022-11-24T14:10:58.395Z,100.00
2022-11-24T14:16:05.141Z,100.00
2022-11-24T14:20:58.774Z,100.00
2022-11-24T14:25:51.917Z,100.00
2022-11-24T14:30:43.622Z,100.00
2022-11-24T14:35:36.184Z,100.00
2022-11-24T14:40:55.105Z,100.00
2022-11-24T14:46:09.378Z,100.00
2022-11-24T14:51:13.354Z,100.00
2022-11-24T14:56:23.894Z,100.00
2022-11-24T15:01:28.495Z,100.00
2022-11-24T15:06:21.481Z,100.00
2022-11-24T15:11:14.084Z,100.00
2022-11-24T15:16:19.268Z,100.00
2022-11-24T15:21:17.221Z,100.00
2022-11-24T15:26:13.757Z,100.00
2022-11-24T15:31:09.751Z,100.00
2022-11-24T15:36:01.486Z,100.00
2022-11-24T15:40:55.703Z,100.00
2022-11-24T15:45:47.572Z,100.00
2022-11-24T15:50:39.620Z,100.00
2022-11-24T15:55:32.558Z,100.00
2022-11-24T16:00:24.494Z,100.00
2022-11-24T16:05:18.032Z,100.00
2022-11-24T16:10:25.149Z,100.00
2022-11-24T16:15:17.097Z,100.00
2022-11-24T16:20:09.415Z,100.00
2022-11-24T16:25:01.171Z,100.00
2022-11-24T16:29:52.917Z,100.00
2022-11-24T16:34:44.536Z,100.00
2022-11-24T16:39:36.324Z,100.00
2022-11-24T16:44:28.064Z,100.00
2022-11-24T16:49:19.921Z,100.00
2022-11-24T16:54:11.868Z,100.00
2022-11-24T16:59:03.735Z,100.00
2022-11-24T17:03:55.425Z,100.00
2022-11-24T17:08:50.029Z,100.00
2022-11-24T17:13:42.810Z,100.00
2022-11-24T17:18:35.034Z,100.00
2022-11-24T17:23:27.223Z,100.00
2022-11-24T17:28:19.520Z,100.00
2022-11-24T17:33:11.699Z,100.00
2022-11-24T17:38:03.715Z,100.00
2022-11-24T17:43:02.278Z,100.00
2022-11-24T17:47:54.201Z,100.00
2022-11-24T17:52:45.802Z,100.00
2022-11-24T17:57:37.581Z,100.00
2022-11-24T18:02:29.357Z,100.00
2022-11-24T18:07:21.165Z,100.00
2022-11-24T18:12:13.301Z,100.00
2022-11-24T18:17:05.017Z,100.00
2022-11-24T18:21:56.653Z,100.00
2022-11-24T18:26:48.569Z,100.00
2022-11-24T18:31:40.347Z,100.00
2022-11-24T18:36:32.855Z,100.00
2022-11-24T18:41:24.594Z,100.00
2022-11-24T18:46:18.239Z,100.00
2022-11-24T18:51:14.737Z,100.00
2022-11-24T18:56:08.242Z,100.00
2022-11-24T19:01:13.193Z,100.00
2022-11-24T19:06:07.011Z,100.00
2022-11-24T19:10:59.416Z,100.00
2022-11-24T19:15:52.089Z,100.00
2022-11-24T19:20:43.876Z,100.00
2022-11-24T19:25:35.630Z,100.00
2022-11-24T19:30:29.424Z,100.00
2022-11-24T19:35:21.383Z,100.00
2022-11-24T19:40:13.778Z,100.00
2022-11-24T19:45:06.185Z,100.00
2022-11-24T19:49:57.917Z,100.00
2022-11-24T19:54:49.642Z,100.00
2022-11-24T19:59:41.994Z,100.00
2022-11-24T20:04:38.316Z,100.00
2022-11-24T20:09:30.239Z,100.00
2022-11-24T20:14:22.145Z,100.00
2022-11-24T20:19:15.898Z,100.00
2022-11-24T20:24:13.558Z,100.00
2022-11-24T20:29:06.421Z,100.00
2022-11-24T20:34:00.165Z,100.00
2022-11-24T20:38:53.315Z,100.00
2022-11-24T20:43:46.306Z,100.00
2022-11-24T20:48:38.508Z,100.00
2022-11-24T20:53:30.368Z,100.00
2022-11-24T20:58:22.026Z,100.00
2022-11-24T21:03:13.631Z,100.00
2022-11-24T21:08:05.767Z,100.00
2022-11-24T21:12:57.485Z,100.00
2022-11-24T21:17:49.594Z,100.00
2022-11-24T21:22:41.275Z,100.00
2022-11-24T21:27:32.957Z,100.00
2022-11-24T21:32:26.601Z,100.00
2022-11-24T21:37:18.352Z,100.00
2022-11-24T21:42:09.991Z,100.00
2022-11-24T21:47:01.780Z,100.00
2022-11-24T21:51:56.039Z,100.00
2022-11-24T21:56:48.168Z,100.00
2022-11-24T22:01:40.103Z,100.00
2022-11-24T22:06:33.378Z,100.00
2022-11-24T22:11:27.064Z,100.00
2022-11-24T22:16:21.898Z,100.00
2022-11-24T22:21:16.520Z,100.00
2022-11-24T22:26:11.280Z,100.00
2022-11-24T22:31:08.373Z,100.00
2022-11-24T22:36:01.187Z,100.00
2022-11-24T22:40:53.163Z,100.00
2022-11-24T22:45:45.034Z,100.00
2022-11-24T22:50:36.757Z,100.00
2022-11-24T22:55:28.432Z,100.00
2022-11-24T23:00:20.171Z,100.00
2022-11-24T23:05:14.705Z,100.00
2022-11-24T23:10:10.257Z,100.00
2022-11-24T23:15:02.063Z,100.00
2022-11-24T23:19:53.777Z,100.00
2022-11-24T23:24:45.508Z,100.00
2022-11-24T23:29:37.234Z,100.00
2022-11-24T23:34:28.882Z,100.00
2022-11-24T23:39:20.506Z,100.00
2022-11-24T23:44:12.155Z,100.00
2022-11-24T23:49:03.867Z,100.00
2022-11-24T23:53:56.573Z,100.00
2022-11-24T23:58:49.064Z,100.00
